Time;durP1;ratioP1;P1;durP2;ratioP2;P2;SDS_P1;SDS_P2;PMS_P1;PMS_P2;Temp;Humidity;BMP_temperature;BMP_pressure;BME280_temperature;BME280_humidity;BME280_pressure;Samples;Min_cycle;Max_cycle;Signal;HPM_P1;HPM_P2
2021/09/30 00:02:19;;;;;;;0.20;0.20;;;11.00;99.90;;;;;;5032210;28;20037;-76
2021/09/30 00:04:45;;;;;;;0.20;0.20;;;11.10;99.90;;;;;;5030999;28;20072;-76
2021/09/30 00:07:11;;;;;;;0.20;0.20;;;11.10;99.90;;;;;;5032204;28;20374;-75
2021/09/30 00:09:41;;;;;;;0.20;0.20;;;11.10;99.90;;;;;;5031702;28;20025;-75
2021/09/30 00:12:11;;;;;;;0.10;0.10;;;11.10;99.90;;;;;;5032259;28;20026;-75
2021/09/30 00:36:02;;;;;;;0.10;0.10;;;11.00;99.90;;;;;;5031871;28;20025;-76
2021/09/30 00:46:43;;;;;;;0.20;0.20;;;10.90;99.90;;;;;;5031041;28;20459;-75
2021/09/30 00:49:22;;;;;;;0.20;0.20;;;10.90;99.90;;;;;;5030550;28;20057;-75
2021/09/30 00:51:59;;;;;;;0.13;0.13;;;10.90;99.90;;;;;;5030096;28;20022;-76
2021/09/30 02:29:21;;;;;;;0.22;0.20;;;10.70;99.90;;;;;;5033119;28;20722;-75
2021/09/30 02:58:05;;;;;;;0.20;0.20;;;10.60;99.90;;;;;;5033103;28;20056;-75
2021/09/30 02:59:40;;;;;;;0.20;0.20;;;10.50;99.90;;;;;;5032581;28;20075;-76
2021/09/30 03:02:06;;;;;;;0.20;0.20;;;10.50;99.90;;;;;;5031625;28;20025;-76
2021/09/30 03:04:34;;;;;;;0.20;0.20;;;10.50;99.90;;;;;;5033131;28;20088;-75
2021/09/30 03:07:01;;;;;;;0.20;0.20;;;10.50;99.90;;;;;;5032913;28;20381;-75
2021/09/30 03:09:37;;;;;;;0.30;0.20;;;10.50;99.90;;;;;;5031605;28;20101;-76
2021/09/30 03:12:07;;;;;;;0.35;0.20;;;10.50;99.90;;;;;;5033149;28;20033;-76
2021/09/30 03:14:41;;;;;;;0.20;0.20;;;10.50;99.90;;;;;;5031466;28;20021;-75
2021/09/30 03:17:08;;;;;;;0.20;0.20;;;10.50;99.90;;;;;;5033139;28;20192;-75
2021/09/30 03:22:19;;;;;;;0.20;0.20;;;10.50;99.90;;;;;;5032741;28;20414;-75
2021/09/30 03:24:48;;;;;;;0.20;0.20;;;10.50;99.90;;;;;;5032254;28;20509;-76
2021/09/30 03:27:14;;;;;;;0.20;0.20;;;10.40;99.90;;;;;;5032700;28;20026;-75
2021/09/30 03:29:40;;;;;;;0.13;0.13;;;10.50;99.90;;;;;;5031906;28;20033;-75
2021/09/30 03:32:06;;;;;;;0.20;0.20;;;10.40;99.90;;;;;;5032770;28;20053;-75
2021/09/30 03:34:33;;;;;;;0.63;0.20;;;10.40;99.90;;;;;;5031417;28;20515;-76
2021/09/30 03:37:04;;;;;;;0.20;0.20;;;10.40;99.90;;;;;;5030918;28;20599;-76
2021/09/30 03:39:30;;;;;;;0.20;0.20;;;10.40;99.90;;;;;;5021246;28;20037;-76
2021/09/30 03:41:56;;;;;;;0.20;0.20;;;10.30;99.90;;;;;;5014525;28;20156;-76
2021/09/30 03:44:23;;;;;;;0.20;0.20;;;10.30;99.90;;;;;;5025237;28;20045;-76
2021/09/30 03:46:51;;;;;;;0.20;0.20;;;10.40;99.90;;;;;;5025072;28;20022;-76
2021/09/30 03:49:26;;;;;;;0.20;0.20;;;10.40;99.90;;;;;;5031084;28;20021;-77
2021/09/30 03:59:37;;;;;;;0.20;0.20;;;10.30;99.90;;;;;;5016952;28;20079;-75
2021/09/30 04:02:03;;;;;;;0.28;0.28;;;10.30;99.90;;;;;;5024479;28;20096;-75
2021/09/30 04:04:34;;;;;;;0.20;0.20;;;10.30;99.90;;;;;;5016286;28;20021;-75
2021/09/30 04:07:03;;;;;;;0.20;0.20;;;10.40;99.90;;;;;;5019652;28;20046;-75
2021/09/30 04:09:29;;;;;;;0.20;0.20;;;10.30;99.90;;;;;;5023744;28;20018;-76
2021/09/30 04:11:58;;;;;;;0.20;0.20;;;10.30;99.90;;;;;;5024082;28;20041;-76
2021/09/30 04:14:25;;;;;;;0.20;0.20;;;10.30;99.90;;;;;;5016146;28;20029;-75
2021/09/30 04:16:51;;;;;;;0.10;0.10;;;10.30;99.90;;;;;;5026488;28;20036;-76
2021/09/30 04:19:18;;;;;;;0.20;0.20;;;10.30;99.90;;;;;;5027100;28;20370;-76
2021/09/30 04:21:45;;;;;;;0.20;0.20;;;10.30;99.90;;;;;;5029661;28;20036;-75
2021/09/30 04:24:12;;;;;;;0.20;0.20;;;10.30;99.90;;;;;;5031626;28;20082;-77
2021/09/30 04:26:38;;;;;;;0.20;0.20;;;10.20;99.90;;;;;;5014550;28;20418;-76
2021/09/30 04:29:04;;;;;;;0.20;0.20;;;10.30;99.90;;;;;;5035255;28;20022;-77
2021/09/30 04:31:30;;;;;;;0.20;0.20;;;10.20;99.90;;;;;;5025517;28;20068;-79
2021/09/30 04:33:56;;;;;;;0.20;0.20;;;10.20;99.90;;;;;;5008138;28;20045;-80
2021/09/30 04:36:21;;;;;;;0.20;0.20;;;10.20;99.90;;;;;;5025290;28;20018;-80
2021/09/30 04:38:49;;;;;;;0.20;0.20;;;10.20;99.90;;;;;;5009272;28;20026;-80
2021/09/30 04:41:16;;;;;;;0.20;0.20;;;10.20;99.90;;;;;;5011505;28;20038;-80
2021/09/30 04:43:45;;;;;;;0.30;0.30;;;10.20;99.90;;;;;;5013025;28;20367;-80
2021/09/30 04:46:15;;;;;;;0.20;0.20;;;10.20;99.90;;;;;;5030784;28;20053;-79
2021/09/30 04:48:41;;;;;;;0.20;0.20;;;10.20;99.90;;;;;;5033265;28;20024;-79
2021/09/30 04:51:08;;;;;;;0.20;0.20;;;10.20;99.90;;;;;;5049004;28;20013;-79
2021/09/30 04:53:34;;;;;;;0.20;0.20;;;10.20;99.90;;;;;;5026218;28;20022;-79
2021/09/30 04:56:00;;;;;;;0.20;0.20;;;10.20;99.90;;;;;;5027494;28;20061;-79
2021/09/30 04:58:26;;;;;;;0.20;0.20;;;10.20;99.90;;;;;;5022329;28;20068;-79
2021/09/30 05:00:51;;;;;;;0.20;0.20;;;10.20;99.90;;;;;;5024138;28;20021;-79
2021/09/30 05:03:18;;;;;;;0.20;0.20;;;10.10;99.90;;;;;;5028547;28;20533;-79
2021/09/30 05:05:43;;;;;;;0.20;0.20;;;10.10;99.90;;;;;;5015604;28;20050;-75
2021/09/30 05:08:09;;;;;;;0.60;0.30;;;10.10;99.90;;;;;;5014396;28;20022;-75
2021/09/30 05:10:36;;;;;;;0.20;0.20;;;10.10;99.90;;;;;;5013293;28;20022;-75
2021/09/30 05:13:08;;;;;;;0.20;0.20;;;10.10;99.90;;;;;;5013546;28;20030;-75
2021/09/30 05:15:36;;;;;;;0.20;0.20;;;10.00;99.90;;;;;;5014404;28;20382;-75
2021/09/30 05:18:03;;;;;;;0.20;0.20;;;10.00;99.90;;;;;;5015021;28;20283;-75
2021/09/30 05:20:28;;;;;;;0.20;0.20;;;10.10;99.90;;;;;;5015831;28;20033;-74
2021/09/30 05:22:54;;;;;;;0.30;0.30;;;10.10;99.90;;;;;;5014705;28;20059;-77
2021/09/30 05:25:20;;;;;;;0.30;0.30;;;10.10;99.90;;;;;;5015053;28;20041;-75
2021/09/30 05:27:46;;;;;;;0.20;0.20;;;10.00;99.90;;;;;;5014389;28;20084;-75
2021/09/30 05:30:12;;;;;;;0.30;0.30;;;10.10;99.90;;;;;;5013774;28;20018;-75
2021/09/30 05:32:38;;;;;;;0.25;0.25;;;10.10;99.90;;;;;;5014043;28;20519;-75
2021/09/30 05:35:04;;;;;;;0.43;0.40;;;10.00;99.90;;;;;;5013332;28;20037;-75
2021/09/30 05:37:29;;;;;;;0.32;0.28;;;10.10;99.90;;;;;;5015271;28;20028;-75
2021/09/30 05:39:56;;;;;;;0.28;0.20;;;10.00;99.90;;;;;;5014603;28;20050;-75
2021/09/30 05:42:25;;;;;;;0.20;0.20;;;10.10;99.90;;;;;;5014931;28;20034;-75
2021/09/30 05:44:51;;;;;;;0.20;0.20;;;10.00;99.90;;;;;;5012998;28;20022;-75
2021/09/30 05:47:18;;;;;;;0.88;0.20;;;10.00;99.90;;;;;;5015282;28;20037;-75
2021/09/30 05:49:44;;;;;;;0.30;0.30;;;10.00;99.90;;;;;;5014772;28;20112;-75
2021/09/30 05:52:09;;;;;;;0.47;0.40;;;10.00;99.90;;;;;;5014219;28;20482;-75
2021/09/30 05:54:35;;;;;;;0.32;0.32;;;10.00;99.90;;;;;;5013115;28;20030;-75
2021/09/30 05:57:01;;;;;;;0.30;0.30;;;10.00;99.90;;;;;;5014124;28;20032;-75
2021/09/30 05:59:27;;;;;;;0.20;0.20;;;10.00;99.90;;;;;;5014620;28;20053;-75
2021/09/30 06:12:25;;;;;;;0.20;0.20;;;10.00;99.90;;;;;;5014426;28;19905;-75
2021/09/30 06:14:52;;;;;;;0.20;0.20;;;10.00;99.90;;;;;;5013796;28;20157;-75
2021/09/30 06:17:18;;;;;;;0.20;0.20;;;10.00;99.90;;;;;;5013002;28;20540;-75
2021/09/30 06:19:44;;;;;;;0.20;0.20;;;10.00;99.90;;;;;;5014209;28;20021;-75
2021/09/30 06:22:10;;;;;;;0.20;0.20;;;10.10;99.90;;;;;;5012230;28;20088;-74
2021/09/30 06:24:36;;;;;;;0.30;0.30;;;10.10;99.90;;;;;;5014170;28;20123;-75
2021/09/30 06:27:03;;;;;;;0.20;0.20;;;10.10;99.90;;;;;;5013575;28;20026;-75
2021/09/30 06:29:30;;;;;;;0.20;0.20;;;10.10;99.90;;;;;;5029294;28;20032;-75
2021/09/30 06:31:55;;;;;;;0.28;0.28;;;10.20;99.90;;;;;;5012094;28;20581;-75
2021/09/30 06:34:21;;;;;;;0.28;0.28;;;10.10;99.90;;;;;;5014238;28;20097;-75
2021/09/30 06:36:47;;;;;;;0.25;0.20;;;10.10;99.90;;;;;;5013680;28;20032;-76
2021/09/30 06:39:13;;;;;;;0.20;0.20;;;10.10;99.90;;;;;;5013604;28;20479;-75
2021/09/30 06:41:39;;;;;;;0.20;0.20;;;10.10;99.90;;;;;;5012480;28;20072;-75
2021/09/30 06:44:04;;;;;;;0.20;0.20;;;10.20;99.90;;;;;;5013006;28;20022;-75
2021/09/30 06:46:30;;;;;;;0.20;0.20;;;10.10;99.90;;;;;;5013683;28;20026;-76
2021/09/30 06:48:56;;;;;;;0.20;0.20;;;10.10;99.90;;;;;;5012826;28;20042;-76
2021/09/30 06:51:22;;;;;;;0.20;0.20;;;10.20;99.90;;;;;;5013760;28;20025;-76
2021/09/30 06:53:48;;;;;;;0.32;0.30;;;10.20;99.90;;;;;;5012369;28;20125;-75
2021/09/30 06:56:16;;;;;;;0.20;0.20;;;10.20;99.90;;;;;;5013562;28;20080;-76
2021/09/30 06:58:45;;;;;;;0.20;0.20;;;10.20;99.90;;;;;;5013601;28;20038;-76
2021/09/30 07:01:11;;;;;;;0.20;0.20;;;10.30;99.90;;;;;;5012612;28;20136;-76
2021/09/30 07:03:37;;;;;;;0.32;0.32;;;10.30;99.90;;;;;;5012049;28;20480;-76
2021/09/30 07:06:04;;;;;;;0.22;0.22;;;10.30;99.90;;;;;;5011937;28;20118;-76
2021/09/30 07:08:30;;;;;;;0.20;0.20;;;10.30;99.90;;;;;;5013325;28;20026;-75
2021/09/30 07:10:56;;;;;;;0.20;0.20;;;10.30;99.90;;;;;;5012773;28;20030;-75
2021/09/30 07:13:22;;;;;;;0.20;0.20;;;10.40;99.90;;;;;;5013419;28;20018;-75
2021/09/30 07:15:48;;;;;;;0.10;0.10;;;10.40;99.90;;;;;;5011883;28;20109;-75
2021/09/30 07:18:18;;;;;;;0.32;0.30;;;10.50;99.90;;;;;;5012641;28;20068;-74
2021/09/30 07:20:49;;;;;;;0.70;0.55;;;10.50;99.90;;;;;;5013229;28;20037;-75
2021/09/30 07:23:15;;;;;;;0.32;0.20;;;10.60;99.90;;;;;;5012499;28;20021;-75
2021/09/30 07:25:40;;;;;;;0.55;0.30;;;10.60;99.90;;;;;;5012822;28;20383;-75
2021/09/30 07:28:06;;;;;;;0.20;0.20;;;10.70;99.90;;;;;;5012247;28;20030;-75
2021/09/30 07:30:33;;;;;;;0.20;0.20;;;10.70;99.90;;;;;;5012938;28;20061;-75
2021/09/30 07:33:00;;;;;;;0.20;0.20;;;10.80;99.90;;;;;;5012285;28;20072;-75
2021/09/30 07:35:26;;;;;;;0.20;0.20;;;10.80;99.90;;;;;;5012876;28;20434;-75
2021/09/30 07:37:55;;;;;;;0.20;0.20;;;10.90;99.90;;;;;;5012189;28;20026;-75
2021/09/30 07:40:22;;;;;;;0.22;0.22;;;10.90;99.90;;;;;;5012340;28;20057;-75
2021/09/30 07:42:48;;;;;;;0.20;0.20;;;10.90;99.90;;;;;;5012308;28;20338;-75
2021/09/30 07:45:14;;;;;;;0.20;0.20;;;11.00;99.90;;;;;;5012386;28;20029;-76
2021/09/30 07:47:40;;;;;;;0.20;0.20;;;10.90;99.90;;;;;;5012345;28;20026;-76
2021/09/30 07:50:06;;;;;;;0.20;0.20;;;10.90;99.90;;;;;;5010794;28;20041;-75
2021/09/30 07:52:32;;;;;;;0.30;0.30;;;11.00;99.90;;;;;;5012663;28;20056;-76
2021/09/30 07:55:00;;;;;;;0.20;0.20;;;11.00;99.90;;;;;;5011915;28;20415;-76
2021/09/30 07:57:27;;;;;;;0.30;0.30;;;11.10;99.90;;;;;;5012735;28;20122;-75
2021/09/30 07:59:53;;;;;;;0.30;0.30;;;11.10;99.90;;;;;;5012552;28;20022;-75
2021/09/30 08:02:19;;;;;;;0.30;0.20;;;11.10;99.90;;;;;;5012361;28;20025;-75
2021/09/30 08:04:44;;;;;;;0.20;0.20;;;11.20;99.90;;;;;;5011994;28;20037;-75
2021/09/30 08:07:10;;;;;;;1.00;0.30;;;11.20;99.90;;;;;;5011680;28;20018;-75
2021/09/30 08:09:36;;;;;;;0.20;0.20;;;11.30;99.90;;;;;;5011047;28;20386;-75
2021/09/30 08:12:02;;;;;;;0.20;0.20;;;11.40;99.90;;;;;;5011614;28;20100;-75
2021/09/30 08:14:28;;;;;;;0.20;0.20;;;11.50;99.90;;;;;;5012249;28;20133;-75
2021/09/30 08:16:54;;;;;;;0.20;0.20;;;11.50;99.90;;;;;;5010674;28;20466;-75
2021/09/30 08:19:20;;;;;;;0.20;0.20;;;11.50;99.90;;;;;;5012096;28;20359;-76
2021/09/30 08:21:46;;;;;;;0.20;0.20;;;11.60;99.90;;;;;;5011690;28;20080;-75
2021/09/30 08:24:14;;;;;;;0.20;0.20;;;11.60;99.90;;;;;;5011498;28;20030;-75
2021/09/30 08:26:40;;;;;;;0.35;0.35;;;11.70;99.90;;;;;;5012119;28;20080;-77
2021/09/30 08:29:06;;;;;;;0.20;0.20;;;11.70;99.90;;;;;;5011351;28;20470;-76
2021/09/30 08:31:32;;;;;;;0.47;0.40;;;11.70;99.90;;;;;;5027275;28;20491;-74
2021/09/30 08:33:58;;;;;;;0.25;0.25;;;11.80;99.90;;;;;;5011474;28;20485;-75
2021/09/30 08:36:25;;;;;;;0.30;0.30;;;11.80;99.90;;;;;;5012120;28;20441;-75
2021/09/30 08:38:51;;;;;;;0.65;0.40;;;11.90;99.90;;;;;;5027096;28;20033;-75
2021/09/30 08:41:20;;;;;;;3.90;0.50;;;12.00;99.90;;;;;;5026592;28;20374;-75
2021/09/30 08:43:46;;;;;;;3.20;0.65;;;12.10;99.90;;;;;;5012176;28;20485;-75
2021/09/30 08:46:12;;;;;;;1.52;0.77;;;12.10;99.90;;;;;;5011368;28;20101;-75
2021/09/30 08:48:38;;;;;;;1.25;0.80;;;12.20;99.90;;;;;;5011755;28;20074;-75
2021/09/30 08:51:04;;;;;;;4.15;1.58;;;12.30;99.90;;;;;;5011377;28;20030;-75
2021/09/30 08:53:30;;;;;;;4.63;1.85;;;12.30;99.90;;;;;;5011949;28;20025;-75
2021/09/30 08:55:56;;;;;;;5.55;2.22;;;12.30;99.90;;;;;;5011955;28;20056;-75
2021/09/30 08:58:22;;;;;;;2.92;1.80;;;12.40;99.90;;;;;;5011575;28;20026;-75
2021/09/30 09:00:52;;;;;;;4.50;2.20;;;12.40;99.90;;;;;;5011833;28;20463;-75
2021/09/30 09:03:32;;;;;;;7.20;2.65;;;12.50;99.90;;;;;;5011520;28;20033;-76
2021/09/30 09:05:59;;;;;;;9.88;3.05;;;12.50;99.90;;;;;;5011115;28;20470;-75
2021/09/30 09:08:25;;;;;;;7.50;3.78;;;12.50;99.90;;;;;;5011492;28;20382;-74
2021/09/30 09:10:54;;;;;;;7.53;2.95;;;12.60;99.90;;;;;;5011699;28;20470;-75
2021/09/30 09:13:23;;;;;;;12.63;3.45;;;12.70;99.90;;;;;;5011061;28;20037;-76
2021/09/30 09:15:57;;;;;;;13.30;4.32;;;12.70;99.90;;;;;;5011745;28;20022;-75
2021/09/30 09:18:34;;;;;;;10.10;4.28;;;12.80;99.90;;;;;;5011465;28;20022;-74
2021/09/30 09:21:15;;;;;;;10.20;3.60;;;12.80;99.90;;;;;;5011180;28;20076;-75
2021/09/30 09:23:52;;;;;;;14.18;4.35;;;12.80;99.90;;;;;;5011631;28;20084;-75
2021/09/30 09:26:27;;;;;;;13.90;4.07;;;12.90;99.90;;;;;;5009755;28;20084;-75
2021/09/30 09:29:22;;;;;;;11.25;3.40;;;13.00;99.90;;;;;;5013735;28;20026;-75
2021/09/30 09:31:51;;;;;;;10.77;3.80;;;13.10;99.90;;;;;;5014288;28;20041;-76
2021/09/30 09:34:32;;;;;;;15.73;4.18;;;13.20;99.90;;;;;;5014797;28;20033;-76
2021/09/30 09:37:20;;;;;;;9.82;3.75;;;13.30;99.90;;;;;;5015222;28;20462;-76
2021/09/30 09:39:45;;;;;;;8.27;3.03;;;13.40;99.90;;;;;;5014999;28;20045;-76
2021/09/30 09:42:15;;;;;;;13.90;4.53;;;13.50;99.90;;;;;;5014359;28;20458;-76
2021/09/30 09:45:02;;;;;;;9.55;3.78;;;13.50;99.90;;;;;;5030159;28;20479;-76
2021/09/30 09:47:30;;;;;;;9.95;4.05;;;13.50;99.90;;;;;;5030125;28;20569;-76
2021/09/30 09:50:20;;;;;;;6.50;3.00;;;13.50;99.90;;;;;;5014617;28;20489;-76
2021/09/30 09:52:54;;;;;;;8.23;3.13;;;13.50;99.90;;;;;;5014861;28;20026;-76
2021/09/30 09:55:24;;;;;;;8.68;3.70;;;13.50;99.90;;;;;;5014030;28;20101;-76
2021/09/30 09:58:16;;;;;;;10.02;3.63;;;13.60;99.90;;;;;;5015174;28;20021;-76
2021/09/30 10:01:02;;;;;;;7.18;2.97;;;13.60;99.90;;;;;;5014768;28;20022;-76
2021/09/30 10:03:32;;;;;;;9.77;3.15;;;13.60;99.90;;;;;;5014589;28;20022;-76
2021/09/30 10:06:06;;;;;;;10.35;3.00;;;13.60;99.90;;;;;;5029789;28;20492;-76
2021/09/30 10:08:33;;;;;;;9.48;3.05;;;13.60;99.90;;;;;;5029879;28;20018;-76
2021/09/30 10:11:00;;;;;;;7.70;2.55;;;13.60;99.90;;;;;;5014533;28;20458;-76
2021/09/30 10:13:28;;;;;;;7.57;2.50;;;13.60;99.90;;;;;;5013854;28;20081;-76
2021/09/30 10:15:55;;;;;;;7.95;2.92;;;13.60;99.90;;;;;;5014328;28;20039;-76
2021/09/30 10:18:23;;;;;;;9.00;2.50;;;13.70;99.90;;;;;;5013808;28;20022;-76
2021/09/30 10:20:50;;;;;;;7.07;2.90;;;13.80;99.90;;;;;;5014323;28;20022;-76
2021/09/30 10:23:46;;;;;;;6.13;2.70;;;14.00;99.90;;;;;;5028459;28;20030;-76
2021/09/30 10:26:19;;;;;;;6.03;2.55;;;14.10;99.90;;;;;;5005047;28;20121;-77
2021/09/30 10:28:45;;;;;;;6.43;2.63;;;14.10;99.90;;;;;;5014151;28;20026;-76
2021/09/30 10:31:27;;;;;;;9.30;2.30;;;14.10;99.90;;;;;;5012234;28;20459;-73
2021/09/30 10:33:55;;;;;;;7.65;2.20;;;14.20;99.90;;;;;;5014120;28;20079;-75
2021/09/30 10:36:48;;;;;;;3.55;2.20;;;14.20;99.90;;;;;;5012050;28;20030;-76
2021/09/30 10:39:22;;;;;;;8.13;2.17;;;14.30;99.90;;;;;;5011329;28;20052;-75
2021/09/30 10:41:56;;;;;;;10.30;2.13;;;14.30;99.60;;;;;;5014118;28;20095;-75
2021/09/30 10:44:36;;;;;;;6.47;1.63;;;14.30;99.70;;;;;;5013250;28;20033;-74
2021/09/30 10:47:06;;;;;;;10.38;2.47;;;14.30;99.80;;;;;;5012544;28;20490;-75
2021/09/30 10:49:43;;;;;;;5.03;2.33;;;14.40;99.70;;;;;;5029144;28;20018;-74
2021/09/30 10:52:32;;;;;;;8.43;1.98;;;14.40;99.50;;;;;;5013090;28;20645;-74
2021/09/30 10:55:04;;;;;;;7.18;2.10;;;14.40;99.40;;;;;;5012853;28;20045;-75
2021/09/30 10:57:32;;;;;;;6.60;2.22;;;14.40;99.40;;;;;;5012847;28;20172;-75
2021/09/30 10:59:59;;;;;;;5.93;2.40;;;14.50;99.30;;;;;;5013510;28;20022;-75
2021/09/30 11:02:25;;;;;;;7.15;2.20;;;14.40;98.70;;;;;;5012874;28;20103;-75
2021/09/30 11:05:20;;;;;;;7.05;1.77;;;14.50;98.90;;;;;;5013203;28;20108;-75
2021/09/30 11:08:06;;;;;;;7.43;1.80;;;14.50;99.00;;;;;;5007269;28;20042;-75
2021/09/30 11:10:31;;;;;;;4.78;2.22;;;14.60;98.60;;;;;;5028303;28;20029;-75
2021/09/30 11:13:17;;;;;;;4.70;1.67;;;14.70;98.50;;;;;;5013523;28;20041;-75
2021/09/30 11:16:03;;;;;;;3.60;1.40;;;14.80;98.40;;;;;;5012065;28;20073;-75
2021/09/30 11:18:51;;;;;;;8.70;2.65;;;15.00;98.30;;;;;;5010245;28;20026;-75
2021/09/30 11:21:32;;;;;;;4.32;1.55;;;15.10;98.10;;;;;;5012687;28;20500;-76
2021/09/30 11:24:00;;;;;;;5.28;1.98;;;15.10;97.80;;;;;;5013351;28;20030;-76
2021/09/30 11:26:27;;;;;;;4.03;1.33;;;15.10;97.60;;;;;;5012267;28;20133;-75
2021/09/30 11:28:54;;;;;;;8.07;1.70;;;15.20;97.70;;;;;;5013094;28;20471;-75
2021/09/30 11:31:28;;;;;;;4.93;1.17;;;15.20;97.50;;;;;;5011346;28;20068;-75
2021/09/30 11:33:58;;;;;;;1.70;1.00;;;15.20;97.50;;;;;;5013184;28;20079;-75
2021/09/30 11:36:33;;;;;;;5.88;2.10;;;15.20;97.40;;;;;;5027540;28;20025;-75
2021/09/30 11:38:59;;;;;;;4.47;1.42;;;15.20;97.40;;;;;;5011265;28;20069;-75
2021/09/30 11:41:29;;;;;;;3.88;1.40;;;15.20;96.90;;;;;;5012038;28;20103;-75
2021/09/30 11:43:54;;;;;;;4.53;1.13;;;15.20;96.80;;;;;;5011582;28;20061;-75
2021/09/30 11:46:33;;;;;;;4.18;1.40;;;15.20;96.60;;;;;;5012483;28;20068;-75
2021/09/30 11:49:06;;;;;;;4.18;1.10;;;15.10;96.50;;;;;;5012281;28;20026;-74
2021/09/30 11:51:38;;;;;;;2.42;0.82;;;15.10;96.60;;;;;;5010337;28;20058;-76
2021/09/30 11:54:04;;;;;;;;;;;15.10;96.30;;;;;;5011743;28;20026;-75
2021/09/30 11:56:38;;;;;;;7.18;1.13;;;15.00;95.90;;;;;;5011700;28;20191;-75
2021/09/30 11:59:06;;;;;;;1.63;1.15;;;15.10;96.20;;;;;;5027656;28;20057;-75
2021/09/30 12:02:05;;;;;;;6.03;1.20;;;15.10;95.70;;;;;;5012064;28;20022;-74
2021/09/30 12:04:47;;;;;;;5.32;1.00;;;15.10;95.70;;;;;;5011710;28;20044;-75
2021/09/30 12:07:23;;;;;;;3.65;1.10;;;15.10;96.00;;;;;;5011845;28;20117;-76
2021/09/30 12:09:52;;;;;;;2.80;0.70;;;15.20;95.70;;;;;;5012135;28;20029;-75
2021/09/30 12:12:18;;;;;;;5.38;1.75;;;15.30;95.40;;;;;;5011822;28;20140;-76
2021/09/30 12:14:51;;;;;;;1.42;0.77;;;15.30;94.40;;;;;;5027527;28;20076;-76
2021/09/30 12:17:18;;;;;;;2.33;0.95;;;15.40;94.60;;;;;;5011692;28;20026;-75
2021/09/30 12:19:52;;;;;;;3.90;1.30;;;15.50;94.70;;;;;;5027267;28;20026;-76
2021/09/30 12:22:25;;;;;;;3.00;1.00;;;15.60;94.50;;;;;;5011550;28;20057;-75
2021/09/30 12:24:57;;;;;;;2.67;0.90;;;15.60;94.20;;;;;;5012609;28;20139;-76
2021/09/30 12:27:28;;;;;;;4.30;1.23;;;15.60;93.80;;;;;;5011457;28;20025;-76
2021/09/30 12:30:07;;;;;;;1.42;0.65;;;15.60;93.10;;;;;;5012182;28;20026;-75
2021/09/30 12:32:34;;;;;;;3.45;0.73;;;15.60;93.10;;;;;;5011600;28;20026;-76
2021/09/30 12:35:04;;;;;;;3.03;0.73;;;15.60;92.40;;;;;;5010821;28;20108;-76
2021/09/30 12:37:36;;;;;;;3.20;0.80;;;15.60;92.70;;;;;;5026622;28;20327;-75
2021/09/30 12:40:04;;;;;;;2.85;1.00;;;15.60;92.50;;;;;;5010305;28;20069;-75
2021/09/30 12:42:31;;;;;;;3.15;1.00;;;15.60;91.90;;;;;;5026467;28;20029;-75
2021/09/30 12:44:57;;;;;;;2.28;0.80;;;15.50;91.60;;;;;;5011781;28;20036;-75
2021/09/30 12:47:38;;;;;;;3.28;0.90;;;15.50;91.90;;;;;;5011363;28;20037;-75
2021/09/30 12:50:04;;;;;;;;;;;15.50;91.70;;;;;;5012606;28;20018;-75
2021/09/30 12:52:31;;;;;;;3.28;0.98;;;15.50;91.50;;;;;;5010044;28;20000;-76
2021/09/30 12:54:56;;;;;;;7.40;1.30;;;15.60;91.70;;;;;;5012198;28;20029;-75
2021/09/30 12:57:31;;;;;;;2.33;0.90;;;15.70;91.10;;;;;;5011989;28;20026;-75
2021/09/30 13:00:09;;;;;;;1.77;0.55;;;15.70;90.80;;;;;;5012015;28;20124;-75
2021/09/30 13:02:35;;;;;;;3.08;0.90;;;15.70;91.00;;;;;;5011681;28;20033;-75
2021/09/30 13:05:01;;;;;;;2.90;0.93;;;15.60;90.60;;;;;;5015695;28;20030;-75
2021/09/30 13:08:00;;;;;;;4.55;0.88;;;15.70;90.50;;;;;;5030324;28;20030;-74
2021/09/30 13:10:32;;;;;;;5.57;0.93;;;15.70;90.70;;;;;;5013820;28;20070;-74
2021/09/30 13:13:04;;;;;;;5.07;0.90;;;15.60;90.70;;;;;;5030828;28;20064;-74
2021/09/30 13:15:37;;;;;;;3.28;0.98;;;15.60;90.40;;;;;;5013555;28;20489;-75
2021/09/30 13:18:05;;;;;;;5.82;0.73;;;15.50;90.60;;;;;;5014253;28;20436;-74
2021/09/30 13:20:31;;;;;;;4.25;0.77;;;15.50;90.50;;;;;;5014874;28;20066;-75
2021/09/30 13:22:57;;;;;;;3.00;0.75;;;15.30;90.50;;;;;;5015432;28;20069;-75
2021/09/30 13:25:22;;;;;;;1.83;0.60;;;15.30;90.60;;;;;;5015074;28;20030;-76
2021/09/30 13:27:51;;;;;;;2.42;0.55;;;15.30;90.70;;;;;;5015363;28;20026;-75
2021/09/30 13:30:19;;;;;;;0.90;0.60;;;15.30;90.80;;;;;;5014988;28;20079;-75
2021/09/30 13:32:46;;;;;;;1.35;0.43;;;15.40;91.00;;;;;;5015275;28;20097;-75
2021/09/30 13:35:13;;;;;;;2.15;0.75;;;15.40;90.80;;;;;;5015164;28;20467;-75
2021/09/30 13:37:39;;;;;;;4.05;0.88;;;15.50;90.70;;;;;;5014784;28;20026;-75
2021/09/30 13:40:07;;;;;;;2.05;0.70;;;15.50;90.70;;;;;;5013517;28;20113;-74
2021/09/30 13:42:35;;;;;;;8.00;1.08;;;15.50;90.60;;;;;;5014100;28;20107;-74
2021/09/30 13:45:02;;;;;;;4.28;0.88;;;15.50;90.20;;;;;;5014998;28;20109;-74
2021/09/30 13:47:28;;;;;;;3.03;1.35;;;15.40;90.00;;;;;;5013063;28;20026;-75
2021/09/30 13:49:55;;;;;;;2.35;0.73;;;15.40;90.30;;;;;;5013624;28;20055;-75
2021/09/30 13:52:22;;;;;;;2.22;0.80;;;15.40;88.70;;;;;;5014362;28;20040;-76
2021/09/30 13:54:47;;;;;;;4.85;0.90;;;15.30;89.30;;;;;;5014538;28;20044;-76
2021/09/30 13:57:13;;;;;;;1.70;0.70;;;15.30;90.00;;;;;;5014455;28;20021;-76
2021/09/30 13:59:40;;;;;;;2.78;1.00;;;15.30;90.00;;;;;;5014210;28;20061;-76
2021/09/30 14:02:06;;;;;;;1.58;1.05;;;15.40;90.20;;;;;;5014749;28;20474;-75
2021/09/30 14:04:34;;;;;;;2.88;0.90;;;15.40;90.20;;;;;;5014315;28;20018;-74
2021/09/30 14:07:00;;;;;;;1.25;0.73;;;15.30;90.10;;;;;;5029836;28;20018;-75
2021/09/30 14:09:27;;;;;;;2.40;0.80;;;15.30;90.30;;;;;;5013782;28;20026;-75
2021/09/30 14:11:53;;;;;;;3.45;0.88;;;15.20;90.40;;;;;;5014831;28;20108;-75
2021/09/30 14:14:20;;;;;;;3.53;0.90;;;15.20;90.40;;;;;;5014107;28;20178;-75
2021/09/30 14:16:49;;;;;;;2.13;0.63;;;15.20;90.30;;;;;;5014197;28;20018;-75
2021/09/30 14:19:19;;;;;;;5.05;1.27;;;15.10;90.40;;;;;;5014403;28;20017;-75
2021/09/30 14:21:46;;;;;;;3.35;0.85;;;15.10;89.70;;;;;;5013984;28;20026;-76
2021/09/30 14:24:12;;;;;;;3.03;0.70;;;15.00;89.60;;;;;;5029630;28;20034;-75
2021/09/30 14:26:38;;;;;;;3.50;0.90;;;15.00;89.40;;;;;;5013635;28;20025;-75
2021/09/30 14:29:04;;;;;;;3.28;1.10;;;15.00;89.90;;;;;;5012579;28;20128;-75
2021/09/30 14:31:30;;;;;;;2.88;0.80;;;15.10;90.00;;;;;;5028750;28;20054;-75
2021/09/30 14:33:56;;;;;;;7.65;1.38;;;15.10;89.70;;;;;;5013905;28;20049;-74
2021/09/30 14:36:21;;;;;;;4.43;1.20;;;15.10;89.50;;;;;;5013283;28;20025;-75
2021/09/30 14:38:47;;;;;;;1.70;0.80;;;15.10;89.40;;;;;;5013856;28;20084;-76
2021/09/30 14:41:13;;;;;;;5.35;1.25;;;15.10;89.10;;;;;;5028699;28;20050;-75
2021/09/30 14:43:39;;;;;;;2.63;0.82;;;15.10;88.90;;;;;;5013164;28;20104;-75
2021/09/30 14:46:06;;;;;;;2.83;1.08;;;15.10;89.00;;;;;;5012650;28;20036;-75
2021/09/30 14:48:33;;;;;;;3.35;0.90;;;15.10;89.00;;;;;;5013480;28;20022;-75
2021/09/30 14:50:58;;;;;;;3.03;1.23;;;15.20;89.10;;;;;;5029051;28;20026;-75
2021/09/30 14:53:24;;;;;;;4.47;0.90;;;15.20;89.20;;;;;;5012910;28;20415;-75
2021/09/30 14:55:50;;;;;;;3.15;1.08;;;15.20;89.40;;;;;;5012426;28;20018;-75
2021/09/30 14:58:16;;;;;;;5.40;1.27;;;15.20;88.40;;;;;;5013628;28;20026;-75
2021/09/30 15:00:42;;;;;;;2.17;0.93;;;15.20;88.60;;;;;;5013010;28;20030;-75
2021/09/30 15:03:07;;;;;;;3.90;0.98;;;15.20;88.70;;;;;;5012186;28;20022;-75
2021/09/30 15:05:34;;;;;;;2.80;0.85;;;15.20;88.60;;;;;;5013108;28;20451;-75
2021/09/30 15:08:01;;;;;;;1.90;0.90;;;15.20;88.50;;;;;;5013516;28;20014;-75
2021/09/30 15:10:28;;;;;;;3.40;1.17;;;15.20;87.90;;;;;;5011567;28;20063;-75
2021/09/30 15:12:53;;;;;;;3.22;1.00;;;15.10;86.50;;;;;;5013512;28;20021;-75
2021/09/30 15:15:20;;;;;;;2.72;1.23;;;15.10;87.10;;;;;;5013060;28;20524;-75
2021/09/30 15:17:53;;;;;;;4.53;1.30;;;15.10;86.70;;;;;;5027922;28;20026;-75
2021/09/30 15:23:01;;;;;;;7.43;1.10;;;15.00;87.10;;;;;;5013236;28;20037;-75
2021/09/30 15:25:28;;;;;;;3.33;1.30;;;15.00;87.30;;;;;;5011737;28;20489;-75
2021/09/30 15:27:54;;;;;;;3.72;1.27;;;14.90;87.50;;;;;;5013207;28;20025;-75
2021/09/30 15:30:21;;;;;;;3.15;0.93;;;14.90;87.50;;;;;;5011472;28;20033;-75
2021/09/30 15:32:47;;;;;;;4.80;0.93;;;14.90;87.60;;;;;;5012061;28;20427;-76
2021/09/30 15:35:13;;;;;;;1.73;0.93;;;14.90;87.70;;;;;;5013149;28;20064;-75
2021/09/30 15:37:40;;;;;;;2.78;0.60;;;14.90;88.20;;;;;;5012333;28;20077;-75
2021/09/30 15:40:06;;;;;;;1.80;0.73;;;14.80;87.90;;;;;;5011480;28;20044;-75
2021/09/30 15:42:32;;;;;;;3.72;0.88;;;14.80;88.20;;;;;;5011956;28;20056;-76
2021/09/30 15:44:57;;;;;;;1.40;0.75;;;14.80;88.30;;;;;;5012419;28;20470;-76
2021/09/30 15:47:25;;;;;;;2.95;0.90;;;14.80;88.50;;;;;;5012611;28;20450;-75
2021/09/30 15:49:51;;;;;;;2.70;0.80;;;14.80;88.80;;;;;;5012636;28;20030;-75
2021/09/30 15:52:16;;;;;;;2.53;0.98;;;14.70;88.90;;;;;;5012695;28;20159;-75